<?xml version="1.0" encoding="UTF-8" standalone="no" ?>
<gpx xmlns="http://www.topografix.com/GPX/1/1" xmlns:xsi="http://www.w3.org/2001/XMLSchema-instance" xsi:schemaLocation="http://www.topografix.com/GPX/1/1 http://www.topografix.com/GPX/1/1/gpx.xsd" version="1.1" creator="VisuGPX - https://www.visugpx.com">
  <metadata>
    <name>savenay-cordemais-lavau</name>
    <desc><![CDATA[Circuit partant partant de Savenay pour rejoindre Cordemais,puis retour par lavau s / Loire.Passages dans les marais et joli point de vu sur l'estuaire de la Loire à cordemais. Retour par le trou bleu à Lavau s/Loire.]]></desc>
  </metadata>
  <trk>
    <name><![CDATA[Savenay-cordemais-lavau Sur Loire on GPSies.com]]></name>
    <trkseg>
      <trkpt lat="47.35983" lon="-1.93935">
        <ele>185.1912</ele>
        <time>2009-11-04T07:38:33Z</time>
      </trkpt>
      <trkpt lat="47.35983" lon="-1.93936">
        <ele>189.517</ele>
        <time>2009-11-04T07:38:34Z</time>
      </trkpt>
      <trkpt lat="47.35982" lon="-1.93935">
        <ele>189.517</ele>
        <time>2009-11-04T07:38:36Z</time>
      </trkpt>
      <trkpt lat="47.3598" lon="-1.93932">
        <ele>184.7106</ele>
        <time>2009-11-04T07:38:38Z</time>
      </trkpt>
      <trkpt lat="47.35976" lon="-1.93923">
        <ele>184.7106</ele>
        <time>2009-11-04T07:38:41Z</time>
      </trkpt>
      <trkpt lat="47.35969" lon="-1.93908">
        <ele>184.2298</ele>
        <time>2009-11-04T07:38:47Z</time>
      </trkpt>
      <trkpt lat="47.35981" lon="-1.93897">
        <ele>183.749</ele>
        <time>2009-11-04T07:38:50Z</time>
      </trkpt>
      <trkpt lat="47.35984" lon="-1.93892">
        <ele>183.749</ele>
        <time>2009-11-04T07:38:51Z</time>
      </trkpt>
      <trkpt lat="47.35998" lon="-1.9385">
        <ele>182.3071</ele>
        <time>2009-11-04T07:38:57Z</time>
      </trkpt>
      <trkpt lat="47.36003" lon="-1.93813">
        <ele>181.3458</ele>
        <time>2009-11-04T07:39:01Z</time>
      </trkpt>
      <trkpt lat="47.36004" lon="-1.9377">
        <ele>180.8652</ele>
        <time>2009-11-04T07:39:06Z</time>
      </trkpt>
      <trkpt lat="47.36" lon="-1.93695">
        <ele>177.9812</ele>
        <time>2009-11-04T07:39:15Z</time>
      </trkpt>
      <trkpt lat="47.35994" lon="-1.93614">
        <ele>175.5779</ele>
        <time>2009-11-04T07:39:24Z</time>
      </trkpt>
      <trkpt lat="47.35994" lon="-1.93604">
        <ele>175.0973</ele>
        <time>2009-11-04T07:39:25Z</time>
      </trkpt>
      <trkpt lat="47.35987" lon="-1.93547">
        <ele>174.1359</ele>
        <time>2009-11-04T07:39:31Z</time>
      </trkpt>
      <trkpt lat="47.35988" lon="-1.93528">
        <ele>173.1747</ele>
        <time>2009-11-04T07:39:33Z</time>
      </trkpt>
      <trkpt lat="47.3599" lon="-1.93507">
        <ele>172.694</ele>
        <time>2009-11-04T07:39:35Z</time>
      </trkpt>
      <trkpt lat="47.35977" lon="-1.93456">
        <ele>171.2521</ele>
        <time>2009-11-04T07:39:41Z</time>
      </trkpt>
      <trkpt lat="47.35952" lon="-1.93407">
        <ele>170.2906</ele>
        <time>2009-11-04T07:39:47Z</time>
      </trkpt>
      <trkpt lat="47.35935" lon="-1.93348">
        <ele>169.3295</ele>
        <time>2009-11-04T07:39:53Z</time>
      </trkpt>
      <trkpt lat="47.35918" lon="-1.93299">
        <ele>167.8873</ele>
        <time>2009-11-04T07:39:59Z</time>
      </trkpt>
      <trkpt lat="47.35926" lon="-1.93284">
        <ele>167.8873</ele>
        <time>2009-11-04T07:40:03Z</time>
      </trkpt>
      <trkpt lat="47.35934" lon="-1.93281">
        <ele>167.4067</ele>
        <time>2009-11-04T07:40:05Z</time>
      </trkpt>
      <trkpt lat="47.35944" lon="-1.93277">
        <ele>167.4067</ele>
        <time>2009-11-04T07:40:07Z</time>
      </trkpt>
      <trkpt lat="47.35973" lon="-1.93257">
        <ele>167.8873</ele>
        <time>2009-11-04T07:40:14Z</time>
      </trkpt>
      <trkpt lat="47.35995" lon="-1.93239">
        <ele>168.8488</ele>
        <time>2009-11-04T07:40:20Z</time>
      </trkpt>
      <trkpt lat="47.36016" lon="-1.93227">
        <ele>167.8873</ele>
        <time>2009-11-04T07:40:25Z</time>
      </trkpt>
      <trkpt lat="47.36038" lon="-1.93209">
        <ele>167.8873</ele>
        <time>2009-11-04T07:40:30Z</time>
      </trkpt>
      <trkpt lat="47.36052" lon="-1.93194">
        <ele>167.8873</ele>
        <time>2009-11-04T07:40:34Z</time>
      </trkpt>
      <trkpt lat="47.36067" lon="-1.93174">
        <ele>166.926</ele>
        <time>2009-11-04T07:40:38Z</time>
      </trkpt>
      <trkpt lat="47.36081" lon="-1.93173">
        <ele>166.4453</ele>
        <time>2009-11-04T07:40:43Z</time>
      </trkpt>
      <trkpt lat="47.36108" lon="-1.93181">
        <ele>166.926</ele>
        <time>2009-11-04T07:40:49Z</time>
      </trkpt>
      <trkpt lat="47.36134" lon="-1.93187">
        <ele>167.4067</ele>
        <time>2009-11-04T07:40:55Z</time>
      </trkpt>
      <trkpt lat="47.36162" lon="-1.93195">
        <ele>167.8873</ele>
        <time>2009-11-04T07:41:02Z</time>
      </trkpt>
      <trkpt lat="47.36178" lon="-1.93195">
        <ele>169.3295</ele>
        <time>2009-11-04T07:41:07Z</time>
      </trkpt>
      <trkpt lat="47.36188" lon="-1.93203">
        <ele>168.8488</ele>
        <time>2009-11-04T07:41:11Z</time>
      </trkpt>
      <trkpt lat="47.36191" lon="-1.93202">
        <ele>169.81</ele>
        <time>2009-11-04T07:41:12Z</time>
      </trkpt>
      <trkpt lat="47.36194" lon="-1.93187">
        <ele>169.3295</ele>
        <time>2009-11-04T07:41:16Z</time>
      </trkpt>
      <trkpt lat="47.36187" lon="-1.9314">
        <ele>169.81</ele>
        <time>2009-11-04T07:41:24Z</time>
      </trkpt>
      <trkpt lat="47.36184" lon="-1.93108">
        <ele>170.2906</ele>
        <time>2009-11-04T07:41:30Z</time>
      </trkpt>
      <trkpt lat="47.36184" lon="-1.93083">
        <ele>172.2133</ele>
        <time>2009-11-04T07:41:35Z</time>
      </trkpt>
      <trkpt lat="47.36181" lon="-1.93072">
        <ele>172.2133</ele>
        <time>2009-11-04T07:41:37Z</time>
      </trkpt>
      <trkpt lat="47.36174" lon="-1.93048">
        <ele>171.2521</ele>
        <time>2009-11-04T07:41:41Z</time>
      </trkpt>
      <trkpt lat="47.3617" lon="-1.92977">
        <ele>170.2906</ele>
        <time>2009-11-04T07:41:51Z</time>
      </trkpt>
      <trkpt lat="47.36168" lon="-1.92946">
        <ele>170.2906</ele>
        <time>2009-11-04T07:41:56Z</time>
      </trkpt>
      <trkpt lat="47.3617" lon="-1.92907">
        <ele>170.7714</ele>
        <time>2009-11-04T07:42:02Z</time>
      </trkpt>
      <trkpt lat="47.36173" lon="-1.92888">
        <ele>170.7714</ele>
        <time>2009-11-04T07:42:05Z</time>
      </trkpt>
      <trkpt lat="47.36175" lon="-1.9285">
        <ele>171.7327</ele>
        <time>2009-11-04T07:42:11Z</time>
      </trkpt>
      <trkpt lat="47.36178" lon="-1.92819">
        <ele>171.2521</ele>
        <time>2009-11-04T07:42:16Z</time>
      </trkpt>
      <trkpt lat="47.36179" lon="-1.92788">
        <ele>171.7327</ele>
        <time>2009-11-04T07:42:21Z</time>
      </trkpt>
      <trkpt lat="47.36178" lon="-1.92751">
        <ele>172.694</ele>
        <time>2009-11-04T07:42:27Z</time>
      </trkpt>
      <trkpt lat="47.36177" lon="-1.9271">
        <ele>173.6553</ele>
        <time>2009-11-04T07:42:34Z</time>
      </trkpt>
      <trkpt lat="47.36178" lon="-1.92674">
        <ele>174.1359</ele>
        <time>2009-11-04T07:42:40Z</time>
      </trkpt>
      <trkpt lat="47.3618" lon="-1.92626">
        <ele>174.6166</ele>
        <time>2009-11-04T07:42:48Z</time>
      </trkpt>
      <trkpt lat="47.36182" lon="-1.92587">
        <ele>174.6166</ele>
        <time>2009-11-04T07:42:55Z</time>
      </trkpt>
      <trkpt lat="47.36186" lon="-1.92552">
        <ele>174.6166</ele>
        <time>2009-11-04T07:43:01Z</time>
      </trkpt>
      <trkpt lat="47.3619" lon="-1.92511">
        <ele>176.0586</ele>
        <time>2009-11-04T07:43:08Z</time>
      </trkpt>
      <trkpt lat="47.36191" lon="-1.92499">
        <ele>174.6166</ele>
        <time>2009-11-04T07:43:10Z</time>
      </trkpt>
      <trkpt lat="47.36188" lon="-1.92475">
        <ele>175.0973</ele>
        <time>2009-11-04T07:43:14Z</time>
      </trkpt>
      <trkpt lat="47.36183" lon="-1.92451">
        <ele>175.0973</ele>
        <time>2009-11-04T07:43:18Z</time>
      </trkpt>
      <trkpt lat="47.3617" lon="-1.92432">
        <ele>174.6166</ele>
        <time>2009-11-04T07:43:22Z</time>
      </trkpt>
      <trkpt lat="47.36156" lon="-1.92434">
        <ele>174.6166</ele>
        <time>2009-11-04T07:43:25Z</time>
      </trkpt>
      <trkpt lat="47.36152" lon="-1.92435">
        <ele>174.6166</ele>
        <time>2009-11-04T07:43:26Z</time>
      </trkpt>
      <trkpt lat="47.36097" lon="-1.92432">
        <ele>171.7327</ele>
        <time>2009-11-04T07:43:37Z</time>
      </trkpt>
      <trkpt lat="47.36061" lon="-1.92433">
        <ele>170.7714</ele>
        <time>2009-11-04T07:43:44Z</time>
      </trkpt>
      <trkpt lat="47.36035" lon="-1.92433">
        <ele>168.8488</ele>
        <time>2009-11-04T07:43:49Z</time>
      </trkpt>
      <trkpt lat="47.35998" lon="-1.92433">
        <ele>166.926</ele>
        <time>2009-11-04T07:43:55Z</time>
      </trkpt>
      <trkpt lat="47.35982" lon="-1.92433">
        <ele>165.9647</ele>
        <time>2009-11-04T07:43:58Z</time>
      </trkpt>
      <trkpt lat="47.35975" lon="-1.92421">
        <ele>165.0034</ele>
        <time>2009-11-04T07:44:01Z</time>
      </trkpt>
      <trkpt lat="47.35976" lon="-1.92408">
        <ele>165.0034</ele>
        <time>2009-11-04T07:44:03Z</time>
      </trkpt>
      <trkpt lat="47.35978" lon="-1.9235">
        <ele>163.5615</ele>
        <time>2009-11-04T07:44:11Z</time>
      </trkpt>
      <trkpt lat="47.35968" lon="-1.92324">
        <ele>162.6001</ele>
        <time>2009-11-04T07:44:15Z</time>
      </trkpt>
      <trkpt lat="47.35963" lon="-1.92306">
        <ele>161.6389</ele>
        <time>2009-11-04T07:44:18Z</time>
      </trkpt>
      <trkpt lat="47.35974" lon="-1.9229">
        <ele>158.7548</ele>
        <time>2009-11-04T07:44:21Z</time>
      </trkpt>
      <trkpt lat="47.36005" lon="-1.92257">
        <ele>152.9869</ele>
        <time>2009-11-04T07:44:26Z</time>
      </trkpt>
      <trkpt lat="47.36018" lon="-1.92241">
        <ele>152.0258</ele>
        <time>2009-11-04T07:44:29Z</time>
      </trkpt>
      <trkpt lat="47.36019" lon="-1.92231">
        <ele>151.0642</ele>
        <time>2009-11-04T07:44:31Z</time>
      </trkpt>
      <trkpt lat="47.36018" lon="-1.92213">
        <ele>149.1416</ele>
        <time>2009-11-04T07:44:34Z</time>
      </trkpt>
      <trkpt lat="47.36026" lon="-1.92173">
        <ele>146.7384</ele>
        <time>2009-11-04T07:44:40Z</time>
      </trkpt>
      <trkpt lat="47.36038" lon="-1.92153">
        <ele>145.7771</ele>
        <time>2009-11-04T07:44:45Z</time>
      </trkpt>
      <trkpt lat="47.36051" lon="-1.92131">
        <ele>145.7771</ele>
        <time>2009-11-04T07:44:50Z</time>
      </trkpt>
      <trkpt lat="47.36059" lon="-1.92106">
        <ele>144.3352</ele>
        <time>2009-11-04T07:44:55Z</time>
      </trkpt>
      <trkpt lat="47.36057" lon="-1.92101">
        <ele>143.8544</ele>
        <time>2009-11-04T07:44:56Z</time>
      </trkpt>
      <trkpt lat="47.36046" lon="-1.92089">
        <ele>143.8544</ele>
        <time>2009-11-04T07:45:00Z</time>
      </trkpt>
      <trkpt lat="47.36028" lon="-1.92071">
        <ele>143.8544</ele>
        <time>2009-11-04T07:45:06Z</time>
      </trkpt>
      <trkpt lat="47.36025" lon="-1.92068">
        <ele>143.3737</ele>
        <time>2009-11-04T07:45:07Z</time>
      </trkpt>
      <trkpt lat="47.36017" lon="-1.92072">
        <ele>143.8544</ele>
        <time>2009-11-04T07:45:11Z</time>
      </trkpt>
      <trkpt lat="47.36005" lon="-1.92089">
        <ele>143.8544</ele>
        <time>2009-11-04T07:45:16Z</time>
      </trkpt>
      <trkpt lat="47.35994" lon="-1.92102">
        <ele>143.3737</ele>
        <time>2009-11-04T07:45:20Z</time>
      </trkpt>
      <trkpt lat="47.35977" lon="-1.9211">
        <ele>143.3737</ele>
        <time>2009-11-04T07:45:24Z</time>
      </trkpt>
      <trkpt lat="47.35941" lon="-1.92107">
        <ele>143.3737</ele>
        <time>2009-11-04T07:45:32Z</time>
      </trkpt>
      <trkpt lat="47.35919" lon="-1.92102">
        <ele>141.9318</ele>
        <time>2009-11-04T07:45:37Z</time>
      </trkpt>
      <trkpt lat="47.35914" lon="-1.921">
        <ele>142.4125</ele>
        <time>2009-11-04T07:45:38Z</time>
      </trkpt>
      <trkpt lat="47.35895" lon="-1.92084">
        <ele>141.451</ele>
        <time>2009-11-04T07:45:43Z</time>
      </trkpt>
      <trkpt lat="47.35885" lon="-1.92078">
        <ele>140.9704</ele>
        <time>2009-11-04T07:45:45Z</time>
      </trkpt>
      <trkpt lat="47.35871" lon="-1.92072">
        <ele>140.4899</ele>
        <time>2009-11-04T07:45:48Z</time>
      </trkpt>
      <trkpt lat="47.35852" lon="-1.92061">
        <ele>141.9318</ele>
        <time>2009-11-04T07:45:53Z</time>
      </trkpt>
      <trkpt lat="47.35845" lon="-1.92058">
        <ele>141.451</ele>
        <time>2009-11-04T07:45:55Z</time>
      </trkpt>
      <trkpt lat="47.35829" lon="-1.92059">
        <ele>140.4899</ele>
        <time>2009-11-04T07:45:59Z</time>
      </trkpt>
      <trkpt lat="47.35822" lon="-1.92063">
        <ele>140.4899</ele>
        <time>2009-11-04T07:46:01Z</time>
      </trkpt>
      <trkpt lat="47.35809" lon="-1.92066">
        <ele>140.4899</ele>
        <time>2009-11-04T07:46:04Z</time>
      </trkpt>
      <trkpt lat="47.35784" lon="-1.92065">
        <ele>142.4125</ele>
        <time>2009-11-04T07:46:09Z</time>
      </trkpt>
      <trkpt lat="47.35771" lon="-1.92066">
        <ele>144.3352</ele>
        <time>2009-11-04T07:46:13Z</time>
      </trkpt>
      <trkpt lat="47.35755" lon="-1.92071">
        <ele>144.8158</ele>
        <time>2009-11-04T07:46:18Z</time>
      </trkpt>
      <trkpt lat="47.35744" lon="-1.92079">
        <ele>142.8931</ele>
        <time>2009-11-04T07:46:22Z</time>
      </trkpt>
      <trkpt lat="47.35725" lon="-1.92102">
        <ele>140.0092</ele>
        <time>2009-11-04T07:46:28Z</time>
      </trkpt>
      <trkpt lat="47.35721" lon="-1.92109">
        <ele>140.0092</ele>
        <time>2009-11-04T07:46:30Z</time>
      </trkpt>
      <trkpt lat="47.35705" lon="-1.92117">
        <ele>139.5284</ele>
        <time>2009-11-04T07:46:35Z</time>
      </trkpt>
      <trkpt lat="47.35692" lon="-1.92132">
        <ele>140.9704</ele>
        <time>2009-11-04T07:46:40Z</time>
      </trkpt>
      <trkpt lat="47.35692" lon="-1.9216">
        <ele>140.4899</ele>
        <time>2009-11-04T07:46:46Z</time>
      </trkpt>
      <trkpt lat="47.35687" lon="-1.92179">
        <ele>140.4899</ele>
        <time>2009-11-04T07:46:50Z</time>
      </trkpt>
      <trkpt lat="47.35682" lon="-1.92189">
        <ele>139.5284</ele>
        <time>2009-11-04T07:46:52Z</time>
      </trkpt>
      <trkpt lat="47.35664" lon="-1.92208">
        <ele>138.0865</ele>
        <time>2009-11-04T07:46:57Z</time>
      </trkpt>
      <trkpt lat="47.35655" lon="-1.92227">
        <ele>137.6058</ele>
        <time>2009-11-04T07:47:01Z</time>
      </trkpt>
      <trkpt lat="47.35654" lon="-1.92245">
        <ele>137.6058</ele>
        <time>2009-11-04T07:47:04Z</time>
      </trkpt>
      <trkpt lat="47.35644" lon="-1.92254">
        <ele>138.0865</ele>
        <time>2009-11-04T07:47:08Z</time>
      </trkpt>
      <trkpt lat="47.35641" lon="-1.92253">
        <ele>138.0865</ele>
        <time>2009-11-04T07:47:09Z</time>
      </trkpt>
      <trkpt lat="47.35622" lon="-1.92233">
        <ele>137.6058</ele>
        <time>2009-11-04T07:47:15Z</time>
      </trkpt>
      <trkpt lat="47.35609" lon="-1.92211">
        <ele>138.5673</ele>
        <time>2009-11-04T07:47:21Z</time>
      </trkpt>
      <trkpt lat="47.35598" lon="-1.92196">
        <ele>138.5673</ele>
        <time>2009-11-04T07:47:25Z</time>
      </trkpt>
      <trkpt lat="47.35583" lon="-1.92185">
        <ele>139.5284</ele>
        <time>2009-11-04T07:47:30Z</time>
      </trkpt>
      <trkpt lat="47.35568" lon="-1.92175">
        <ele>140.4899</ele>
        <time>2009-11-04T07:47:34Z</time>
      </trkpt>
      <trkpt lat="47.35553" lon="-1.92164">
        <ele>140.9704</ele>
        <time>2009-11-04T07:47:39Z</time>
      </trkpt>
      <trkpt lat="47.35536" lon="-1.92152">
        <ele>141.9318</ele>
        <time>2009-11-04T07:47:44Z</time>
      </trkpt>
      <trkpt lat="47.35518" lon="-1.92136">
        <ele>142.8931</ele>
        <time>2009-11-04T07:47:49Z</time>
      </trkpt>
      <trkpt lat="47.355" lon="-1.92119">
        <ele>145.2964</ele>
        <time>2009-11-04T07:47:56Z</time>
      </trkpt>
      <trkpt lat="47.35495" lon="-1.92115">
        <ele>146.2578</ele>
        <time>2009-11-04T07:47:58Z</time>
      </trkpt>
      <trkpt lat="47.35484" lon="-1.92106">
        <ele>147.219</ele>
        <time>2009-11-04T07:48:02Z</time>
      </trkpt>
      <trkpt lat="47.3547" lon="-1.92089">
        <ele>147.219</ele>
        <time>2009-11-04T07:48:08Z</time>
      </trkpt>
      <trkpt lat="47.35458" lon="-1.92069">
        <ele>147.6997</ele>
        <time>2009-11-04T07:48:13Z</time>
      </trkpt>
      <trkpt lat="47.35447" lon="-1.92051">
        <ele>149.1416</ele>
        <time>2009-11-04T07:48:18Z</time>
      </trkpt>
      <trkpt lat="47.35434" lon="-1.92027">
        <ele>150.5836</ele>
        <time>2009-11-04T07:48:24Z</time>
      </trkpt>
      <trkpt lat="47.35427" lon="-1.92011">
        <ele>151.0642</ele>
        <time>2009-11-04T07:48:28Z</time>
      </trkpt>
      <trkpt lat="47.35416" lon="-1.91988">
        <ele>152.5063</ele>
        <time>2009-11-04T07:48:34Z</time>
      </trkpt>
      <trkpt lat="47.35407" lon="-1.91971">
        <ele>152.9869</ele>
        <time>2009-11-04T07:48:39Z</time>
      </trkpt>
      <trkpt lat="47.354" lon="-1.91956">
        <ele>153.9484</ele>
        <time>2009-11-04T07:48:44Z</time>
      </trkpt>
      <trkpt lat="47.35399" lon="-1.91934">
        <ele>155.3902</ele>
        <time>2009-11-04T07:48:49Z</time>
      </trkpt>
      <trkpt lat="47.35393" lon="-1.91905">
        <ele>155.3902</ele>
        <time>2009-11-04T07:48:55Z</time>
      </trkpt>
      <trkpt lat="47.35387" lon="-1.91877">
        <ele>155.871</ele>
        <time>2009-11-04T07:49:01Z</time>
      </trkpt>
      <trkpt lat="47.3538" lon="-1.91848">
        <ele>156.8322</ele>
        <time>2009-11-04T07:49:07Z</time>
      </trkpt>
      <trkpt lat="47.35368" lon="-1.91814">
        <ele>157.3129</ele>
        <time>2009-11-04T07:49:14Z</time>
      </trkpt>
      <trkpt lat="47.35355" lon="-1.91781">
        <ele>157.3129</ele>
        <time>2009-11-04T07:49:21Z</time>
      </trkpt>
      <trkpt lat="47.35339" lon="-1.91744">
        <ele>156.8322</ele>
        <time>2009-11-04T07:49:28Z</time>
      </trkpt>
      <trkpt lat="47.35319" lon="-1.91688">
        <ele>157.7936</ele>
        <time>2009-11-04T07:49:38Z</time>
      </trkpt>
      <trkpt lat="47.3531" lon="-1.91662">
        <ele>157.3129</ele>
        <time>2009-11-04T07:49:43Z</time>
      </trkpt>
      <trkpt lat="47.35299" lon="-1.91635">
        <ele>156.8322</ele>
        <time>2009-11-04T07:49:48Z</time>
      </trkpt>
      <trkpt lat="47.3529" lon="-1.91594">
        <ele>156.8322</ele>
        <time>2009-11-04T07:49:55Z</time>
      </trkpt>
      <trkpt lat="47.35278" lon="-1.91547">
        <ele>155.871</ele>
        <time>2009-11-04T07:50:02Z</time>
      </trkpt>
      <trkpt lat="47.35261" lon="-1.91509">
        <ele>154.429</ele>
        <time>2009-11-04T07:50:08Z</time>
      </trkpt>
      <trkpt lat="47.35237" lon="-1.91475">
        <ele>153.4677</ele>
        <time>2009-11-04T07:50:14Z</time>
      </trkpt>
      <trkpt lat="47.35211" lon="-1.91437">
        <ele>152.0258</ele>
        <time>2009-11-04T07:50:21Z</time>
      </trkpt>
      <trkpt lat="47.3519" lon="-1.91401">
        <ele>150.5836</ele>
        <time>2009-11-04T07:50:27Z</time>
      </trkpt>
      <trkpt lat="47.35178" lon="-1.91364">
        <ele>149.1416</ele>
        <time>2009-11-04T07:50:33Z</time>
      </trkpt>
      <trkpt lat="47.35168" lon="-1.91323">
        <ele>145.7771</ele>
        <time>2009-11-04T07:50:38Z</time>
      </trkpt>
      <trkpt lat="47.35163" lon="-1.91304">
        <ele>142.8931</ele>
        <time>2009-11-04T07:50:40Z</time>
      </trkpt>
      <trkpt lat="47.35169" lon="-1.91263">
        <ele>141.9318</ele>
        <time>2009-11-04T07:50:45Z</time>
      </trkpt>
      <trkpt lat="47.35181" lon="-1.91238">
        <ele>143.3737</ele>
        <time>2009-11-04T07:50:51Z</time>
      </trkpt>
      <trkpt lat="47.35185" lon="-1.91222">
        <ele>143.8544</ele>
        <time>2009-11-04T07:50:55Z</time>
      </trkpt>
      <trkpt lat="47.35175" lon="-1.91191">
        <ele>143.8544</ele>
        <time>2009-11-04T07:51:01Z</time>
      </trkpt>
      <trkpt lat="47.35158" lon="-1.91183">
        <ele>143.3737</ele>
        <time>2009-11-04T07:51:05Z</time>
      </trkpt>
      <trkpt lat="47.35148" lon="-1.91192">
        <ele>142.8931</ele>
        <time>2009-11-04T07:51:08Z</time>
      </trkpt>
      <trkpt lat="47.35142" lon="-1.91202">
        <ele>142.8931</ele>
        <time>2009-11-04T07:51:10Z</time>
      </trkpt>
      <trkpt lat="47.3514" lon="-1.91221">
        <ele>142.8931</ele>
        <time>2009-11-04T07:51:13Z</time>
      </trkpt>
      <trkpt lat="47.35139" lon="-1.91252">
        <ele>142.8931</ele>
        <time>2009-11-04T07:51:18Z</time>
      </trkpt>
      <trkpt lat="47.35122" lon="-1.9127">
        <ele>143.3737</ele>
        <time>2009-11-04T07:51:23Z</time>
      </trkpt>
      <trkpt lat="47.35114" lon="-1.91274">
        <ele>143.8544</ele>
        <time>2009-11-04T07:51:25Z</time>
      </trkpt>
      <trkpt lat="47.35087" lon="-1.91287">
        <ele>145.2964</ele>
        <time>2009-11-04T07:51:32Z</time>
      </trkpt>
      <trkpt lat="47.35078" lon="-1.91297">
        <ele>146.7384</ele>
        <time>2009-11-04T07:51:35Z</time>
      </trkpt>
      <trkpt lat="47.35066" lon="-1.91306">
        <ele>147.6997</ele>
        <time>2009-11-04T07:51:39Z</time>
      </trkpt>
      <trkpt lat="47.35052" lon="-1.91309">
        <ele>148.1804</ele>
        <time>2009-11-04T07:51:43Z</time>
      </trkpt>
      <trkpt lat="47.35029" lon="-1.91323">
        <ele>148.1804</ele>
        <time>2009-11-04T07:51:49Z</time>
      </trkpt>
      <trkpt lat="47.3501" lon="-1.91342">
        <ele>147.219</ele>
        <time>2009-11-04T07:51:54Z</time>
      </trkpt>
      <trkpt lat="47.34985" lon="-1.91358">
        <ele>146.7384</ele>
        <time>2009-11-04T07:52:00Z</time>
      </trkpt>
      <trkpt lat="47.34954" lon="-1.91369">
        <ele>146.7384</ele>
        <time>2009-11-04T07:52:07Z</time>
      </trkpt>
      <trkpt lat="47.34916" lon="-1.9138">
        <ele>142.8931</ele>
        <time>2009-11-04T07:52:15Z</time>
      </trkpt>
      <trkpt lat="47.34884" lon="-1.91382">
        <ele>141.451</ele>
        <time>2009-11-04T07:52:21Z</time>
      </trkpt>
      <trkpt lat="47.34849" lon="-1.91393">
        <ele>140.4899</ele>
        <time>2009-11-04T07:52:28Z</time>
      </trkpt>
      <trkpt lat="47.34817" lon="-1.91409">
        <ele>140.0092</ele>
        <time>2009-11-04T07:52:35Z</time>
      </trkpt>
      <trkpt lat="47.34795" lon="-1.91418">
        <ele>140.0092</ele>
        <time>2009-11-04T07:52:41Z</time>
      </trkpt>
      <trkpt lat="47.34773" lon="-1.91426">
        <ele>140.0092</ele>
        <time>2009-11-04T07:52:47Z</time>
      </trkpt>
      <trkpt lat="47.34764" lon="-1.91428">
        <ele>139.5284</ele>
        <time>2009-11-04T07:52:49Z</time>
      </trkpt>
      <trkpt lat="47.34743" lon="-1.9142">
        <ele>139.5284</ele>
        <time>2009-11-04T07:52:54Z</time>
      </trkpt>
      <trkpt lat="47.34736" lon="-1.914">
        <ele>139.5284</ele>
        <time>2009-11-04T07:52:58Z</time>
      </trkpt>
      <trkpt lat="47.34736" lon="-1.91376">
        <ele>139.5284</ele>
        <time>2009-11-04T07:53:02Z</time>
      </trkpt>
      <trkpt lat="47.34729" lon="-1.91346">
        <ele>140.0092</ele>
        <time>2009-11-04T07:53:07Z</time>
      </trkpt>
      <trkpt lat="47.34722" lon="-1.91298">
        <ele>141.451</ele>
        <time>2009-11-04T07:53:15Z</time>
      </trkpt>
      <trkpt lat="47.34717" lon="-1.91266">
        <ele>142.8931</ele>
        <time>2009-11-04T07:53:21Z</time>
      </trkpt>
      <trkpt lat="47.34716" lon="-1.9125">
        <ele>144.3352</ele>
        <time>2009-11-04T07:53:25Z</time>
      </trkpt>
      <trkpt lat="47.34714" lon="-1.91229">
        <ele>145.7771</ele>
        <time>2009-11-04T07:53:30Z</time>
      </trkpt>
      <trkpt lat="47.34709" lon="-1.91204">
        <ele>147.219</ele>
        <time>2009-11-04T07:53:35Z</time>
      </trkpt>
      <trkpt lat="47.34703" lon="-1.9118">
        <ele>147.219</ele>
        <time>2009-11-04T07:53:40Z</time>
      </trkpt>
      <trkpt lat="47.34699" lon="-1.91157">
        <ele>147.219</ele>
        <time>2009-11-04T07:53:45Z</time>
      </trkpt>
      <trkpt lat="47.34685" lon="-1.91152">
        <ele>147.219</ele>
        <time>2009-11-04T07:53:50Z</time>
      </trkpt>
      <trkpt lat="47.34668" lon="-1.91161">
        <ele>145.7771</ele>
        <time>2009-11-04T07:53:55Z</time>
      </trkpt>
      <trkpt lat="47.3465" lon="-1.91155">
        <ele>144.8158</ele>
        <time>2009-11-04T07:54:00Z</time>
      </trkpt>
      <trkpt lat="47.34649" lon="-1.9115">
        <ele>144.3352</ele>
        <time>2009-11-04T07:54:01Z</time>
      </trkpt>
      <trkpt lat="47.34642" lon="-1.91128">
        <ele>144.3352</ele>
        <time>2009-11-04T07:54:05Z</time>
      </trkpt>
      <trkpt lat="47.34626" lon="-1.91127">
        <ele>141.9318</ele>
        <time>2009-11-04T07:54:09Z</time>
      </trkpt>
      <trkpt lat="47.34622" lon="-1.9113">
        <ele>142.4125</ele>
        <time>2009-11-04T07:54:10Z</time>
      </trkpt>
      <trkpt lat="47.34597" lon="-1.91139">
        <ele>140.9704</ele>
        <time>2009-11-04T07:54:15Z</time>
      </trkpt>
      <trkpt lat="47.34577" lon="-1.9114">
        <ele>140.4899</ele>
        <time>2009-11-04T07:54:19Z</time>
      </trkpt>
      <trkpt lat="47.34568" lon="-1.91142">
        <ele>140.0092</ele>
        <time>2009-11-04T07:54:21Z</time>
      </trkpt>
      <trkpt lat="47.34545" lon="-1.91153">
        <ele>139.5284</ele>
        <time>2009-11-04T07:54:26Z</time>
      </trkpt>
      <trkpt lat="47.34536" lon="-1.91157">
        <ele>139.5284</ele>
        <time>2009-11-04T07:54:28Z</time>
      </trkpt>
      <trkpt lat="47.34527" lon="-1.91161">
        <ele>139.5284</ele>
        <time>2009-11-04T07:54:30Z</time>
      </trkpt>
      <trkpt lat="47.34495" lon="-1.91183">
        <ele>139.5284</ele>
        <time>2009-11-04T07:54:38Z</time>
      </trkpt>
      <trkpt lat="47.34492" lon="-1.91202">
        <ele>137.6058</ele>
        <time>2009-11-04T07:54:42Z</time>
      </trkpt>
      <trkpt lat="47.34495" lon="-1.91236">
        <ele>135.2025</ele>
        <time>2009-11-04T07:54:47Z</time>
      </trkpt>
      <trkpt lat="47.34493" lon="-1.91252">
        <ele>134.7219</ele>
        <time>2009-11-04T07:54:49Z</time>
      </trkpt>
      <trkpt lat="47.34489" lon="-1.91267">
        <ele>133.2799</ele>
        <time>2009-11-04T07:54:51Z</time>
      </trkpt>
      <trkpt lat="47.34483" lon="-1.91283">
        <ele>132.3186</ele>
        <time>2009-11-04T07:54:53Z</time>
      </trkpt>
      <trkpt lat="47.3448" lon="-1.91291">
        <ele>131.8379</ele>
        <time>2009-11-04T07:54:54Z</time>
      </trkpt>
      <trkpt lat="47.34471" lon="-1.91325">
        <ele>129.9153</ele>
        <time>2009-11-04T07:54:58Z</time>
      </trkpt>
      <trkpt lat="47.34464" lon="-1.91344">
        <ele>127.512</ele>
        <time>2009-11-04T07:55:01Z</time>
      </trkpt>
      <trkpt lat="47.34446" lon="-1.91362">
        <ele>123.1861</ele>
        <time>2009-11-04T07:55:05Z</time>
      </trkpt>
      <trkpt lat="47.3444" lon="-1.91365">
        <ele>122.2247</ele>
        <time>2009-11-04T07:55:06Z</time>
      </trkpt>
      <trkpt lat="47.34426" lon="-1.91371">
        <ele>119.8214</ele>
        <time>2009-11-04T07:55:08Z</time>
      </trkpt>
      <trkpt lat="47.34404" lon="-1.91387">
        <ele>114.5342</ele>
        <time>2009-11-04T07:55:11Z</time>
      </trkpt>
      <trkpt lat="47.34381" lon="-1.91401">
        <ele>110.6888</ele>
        <time>2009-11-04T07:55:14Z</time>
      </trkpt>
      <trkpt lat="47.3436" lon="-1.91418">
        <ele>106.8436</ele>
        <time>2009-11-04T07:55:17Z</time>
      </trkpt>
      <trkpt lat="47.34352" lon="-1.91423">
        <ele>104.4404</ele>
        <time>2009-11-04T07:55:18Z</time>
      </trkpt>
      <trkpt lat="47.34321" lon="-1.91435">
        <ele>101.0757</ele>
        <time>2009-11-04T07:55:23Z</time>
      </trkpt>
      <trkpt lat="47.34311" lon="-1.91441">
        <ele>99.15308</ele>
        <time>2009-11-04T07:55:26Z</time>
      </trkpt>
      <trkpt lat="47.34308" lon="-1.91455">
        <ele>97.71118</ele>
        <time>2009-11-04T07:55:29Z</time>
      </trkpt>
      <trkpt lat="47.3431" lon="-1.91461">
        <ele>97.23047</ele>
        <time>2009-11-04T07:55:30Z</time>
      </trkpt>
      <trkpt lat="47.34326" lon="-1.91515">
        <ele>96.26929</ele>
        <time>2009-11-04T07:55:38Z</time>
      </trkpt>
      <trkpt lat="47.34335" lon="-1.91541">
        <ele>95.78845</ele>
        <time>2009-11-04T07:55:42Z</time>
      </trkpt>
      <trkpt lat="47.34336" lon="-1.91566">
        <ele>95.30774</ele>
        <time>2009-11-04T07:55:46Z</time>
      </trkpt>
      <trkpt lat="47.34332" lon="-1.91572">
        <ele>94.82715</ele>
        <time>2009-11-04T07:55:47Z</time>
      </trkpt>
      <trkpt lat="47.34303" lon="-1.91607">
        <ele>92.90454</ele>
        <time>2009-11-04T07:55:53Z</time>
      </trkpt>
      <trkpt lat="47.34257" lon="-1.9166">
        <ele>89.53992</ele>
        <time>2009-11-04T07:56:01Z</time>
      </trkpt>
      <trkpt lat="47.34224" lon="-1.917">
        <ele>88.57874</ele>
        <time>2009-11-04T07:56:07Z</time>
      </trkpt>
      <trkpt lat="47.34217" lon="-1.91733">
        <ele>87.61719</ele>
        <time>2009-11-04T07:56:11Z</time>
      </trkpt>
      <trkpt lat="47.34215" lon="-1.91778">
        <ele>86.17529</ele>
        <time>2009-11-04T07:56:16Z</time>
      </trkpt>
      <trkpt lat="47.34195" lon="-1.91831">
        <ele>85.69458</ele>
        <time>2009-11-04T07:56:23Z</time>
      </trkpt>
      <trkpt lat="47.34179" lon="-1.91872">
        <ele>85.21399</ele>
        <time>2009-11-04T07:56:29Z</time>
      </trkpt>
      <trkpt lat="47.34158" lon="-1.91929">
        <ele>81.84937</ele>
        <time>2009-11-04T07:56:36Z</time>
      </trkpt>
      <trkpt lat="47.34145" lon="-1.91964">
        <ele>79.92664</ele>
        <time>2009-11-04T07:56:41Z</time>
      </trkpt>
      <trkpt lat="47.34127" lon="-1.91976">
        <ele>78.48474</ele>
        <time>2009-11-04T07:56:46Z</time>
      </trkpt>
    </trkseg>
  </trk>
</gpx>